Bethel Airport
PABE : rendu visible

Aérodrome :











RETROUVEZ-NOUS SUR...

 
LOGIN :

S'inscrire | Disclaimer

   EN    FR    IT 

 









Légende :    VFR   VFR Marginal   IFR   IFR Intensif   IFR Très Intensif
Visi : 
Plafond : 
>= 8 km
>= 3000ft
5 à 8 km
1000 à 3000 ft
1500m à 5 km
500 à 1000 ft
800 à 1500m
200 à 500 ft
< 800m
< 200 ft
Symboles :   Orages  Brouillard  Fortes neiges  Fortes précipitations  Vent > 20 kt






- Altitude de l'aérodrome : 126 ft
- Code IATA : BET


PABE - Bethel

DERNIER METAR :
  • 091810Z 17021KT 3/4SM R19R/4000V5500FT -SN BR OVC006 M02/M03 A3021 RMK AO2 PK WND 17027/1808 P0000 T10171028

METARs EXPIRÉS :
  • 091753Z 17022KT 1 1/2SM R19R/4000VP6000FT -SN BR OVC006 M02/M02 A3020 RMK AO2 PK WND 17026/1752 SLP231 P0000 60003 T10171022 11017 21039 55004
  • 091701Z 16019KT 1 1/2SM -SN BR BKN006 OVC013 M02/M03 A3020 RMK AO2 P0000 T10221033
  • 091647Z 16017KT 3SM -SN BR BKN006 BKN011 OVC019 M02/M03 A3020 RMK AO2 P0000
  • 091617Z 16019KT 1 3/4SM R19R/6000VP6000FT -SN BR BKN007 BKN013 OVC028 M03/M04 A3021 RMK AO2 P0000 T10281039
  • 091553Z 16016KT 5SM -SN BR OVC009 M03/M04 A3021 RMK AO2 SNE34B51 SLP234 P0000 T10281039
  • 091539Z 16016KT 8SM OVC007 M03/M04 A3021 RMK AO2 SNE34 CIG 006V011 P0000 T10281039

TAF PABE
Valide du 09 à 18h jusqu'au 10 à 18h UTC


091723Z 0918/1018 17015KT 1SM -SN OVC006
TEMPO 0918/0922 18014G25KT 4SM SCT007 BKN015
FM092200 18015G25KT 2SM -SN BR OVC007
FM100600 19015KT P6SM BKN006 OVC015
FM100900 18011KT P6SM SCT007 OVC015



MET'MAP, la Météo Aéronautique d'un coup d'oeil ! - Copyright ORBIFLY Décembre 2007 - Disclaimer

ORBIFLY MET'MAP TEAM :

Programmation & Développement : Alexandra Zaïnal
Sur une idée originale de : Baudouin d'Aumeries
Assistance à la programmation : Marc-Olivier Méhu
Soutien technique & logistique : Manuel Goepfert

Contact : metmap@orbifly.com




SOURCES & CREDITS :

   NOAA       Earth
Advisory